Pleasant Prairie, Wisconsin
Current Conditions -  °F | °C
As of 7:53 AM on Sunday 21 Dec 2014 (Local Time) from KENW Reporting Station
Haze Haze  
Wind Chill: 26°   Ceiling: 4000
Heat Index: 33°   Visibility: 6mi
Dew Point: 28°   Wind: 8mph
Humidity: 82%   Direction: 180°S
Pressure: 30.18"   Gusts: NA
Location:  42.53°N, 87.85°W
Report Text: KENW 211353Z 18007KT 6SM HZ OVC040 01/M02 A3018 RMK AO2 SLP228 T00061022
Loading
Personal Weather Stations






























Interactive Weather Map New forecast layout! Learn more

10-Day Weather Forecast

Advertisements
Track Severe Weather on mobile